Main page
METAR-TAF:

METAR-TAF

Airports :

Cardiff Airport

Cardiff, Wales

latitude: 51-24N, longitude: 003-21W, elevation: 67 m

Current weather observation

The report was made 33 minutes ago, at 20:50 UTC
Wind 5 kt from the West
Temperature 13°C
Humidity 82%
Pressure 1019 hPa
Visibility 10 km or more
no clouds below 1500 m and no cumulonimbus

METAR: EGFF 202050Z 27005KT CAVOK 13/10 Q1019

Time: 22:23 (21:23 UTC)

Forecast

The report was made 4 hours and 27 minutes ago, at 16:56 UTC
Forecast valid from 20 at 18 UTC to 21 at 18 UTC
Wind 4 kt from the South
Visibility 10 km or more
Few clouds at a height of 3500 ft
Probability 30%
from 21 at 03 UTC to 21 at 06 UTC
Visibility: 7000 m
Probability 30% :
Temporary
from 21 at 15 UTC to 21 at 18 UTC
Visibility: 6000 m
heavy rain showers, showers, small hail or snow pellets

TAF: EGFF 201656Z 2018/2118 19004KT 9999 FEW035 PROB30 2103/2106 7000 PROB30 TEMPO 2115/2118 6000 +SHRA SHGS

Weather observations and forecasts of more than 4000 airports (METAR and TAF reports).

The available stations are represented by yellow and red dots on the map.

Hover mouse over dot to see the name of the station.

Then click to see weather observations and forecasts.

To change the map : click on the green buttons with a black cross to zoom in, on the green button with a dash to zoom out, or on the green arrows for adjacent maps.


METAR-TAF: